»·PEaware :: WAT540 1O5-KEUG

WAT540 :: 1O5-KEUG

FLIGHT INFORMATION

Flight Status: Arrived
Operator:
Walker Air Transport
More flights by this operator :: More flights under this callsign
Pilot: Michael R. (33632)
Aircraft: GRUMMAN AERO AA5 CHEETAH TIGER
(AA5)
More flights by this aircraft type
Origin: 1O5 Montague-Yreka Rohrer
United States
Destination: KEUG Mahlon Sweet
United States
More flights between these airports :: More routes between these airports
Route:
File this flight plan on PilotEdge
Remarks:
Altitude:
(Current/Filed)
8,500ft
Speed:
(Current/Filed)
130kts
Departed: 18-Feb-21 04:02 AM
Arrived: 18-Feb-21 05:16 AM
Distance/Time
Traveled:
146nm/1:14
Distance/Time
To Go:
Arrived

Flight Plot

Page will automatically refresh every two minutes.

Flight plan parsing failed; only flown route is shown


Map Options




Map Legend


Flown Route
Filed Route
Departure Airport
Arrival Airport
Navaid (VOR, NDB)
Fix

Horizontal Profiles

Position Reports

Time Latitude Longitude Heading Altitude Ground
Speed
18-Feb-21 03:35 41.730065 -122.543724 69 2524ft 0kts
18-Feb-21 03:36 41.730065 -122.543724 69 2524ft 0kts
18-Feb-21 03:37 41.730065 -122.543724 69 2524ft 0kts
18-Feb-21 03:38 41.730065 -122.543724 69 2524ft 0kts
18-Feb-21 03:39 41.730065 -122.543724 69 2524ft 0kts
18-Feb-21 03:40 41.730065 -122.543724 69 2524ft 0kts
18-Feb-21 03:41 41.730065 -122.543724 69 2524ft 0kts
18-Feb-21 03:42 41.730065 -122.543724 69 2524ft 0kts
18-Feb-21 03:43 41.730065 -122.543724 69 2524ft 0kts
18-Feb-21 03:44 41.730065 -122.543724 69 2524ft 0kts
18-Feb-21 03:45 41.730065 -122.543724 69 2524ft 0kts
18-Feb-21 03:46 41.730065 -122.543724 69 2524ft 0kts
18-Feb-21 03:47 41.730065 -122.543724 69 2524ft 0kts
18-Feb-21 03:48 41.730065 -122.543724 69 2524ft 0kts
18-Feb-21 03:49 41.730065 -122.543724 69 2524ft 0kts
18-Feb-21 03:50 41.730065 -122.543724 69 2524ft 0kts
18-Feb-21 03:51 41.730065 -122.543724 69 2524ft 0kts
18-Feb-21 03:52 41.730065 -122.543724 69 2524ft 0kts
18-Feb-21 03:53 41.730065 -122.543724 69 2524ft 0kts
18-Feb-21 03:54 41.730065 -122.543724 69 2524ft 0kts
18-Feb-21 03:55 41.730065 -122.543724 69 2524ft 0kts
18-Feb-21 03:56 41.730065 -122.543723 69 2524ft 0kts
18-Feb-21 03:57 41.729705 -122.543763 174 2524ft 10kts
18-Feb-21 03:58 41.725998 -122.542094 207 2528ft 0kts
18-Feb-21 03:59 41.725998 -122.542094 206 2528ft 0kts
18-Feb-21 04:00 41.725820 -122.542632 333 2527ft 4kts
18-Feb-21 04:01 41.743164 -122.551400 333 3037ft 78kts
18-Feb-21 04:02 41.763297 -122.552077 36 3783ft 85kts
18-Feb-21 04:03 41.783374 -122.531139 37 4517ft 94kts
18-Feb-21 04:04 41.808785 -122.527027 329 5270ft 94kts
18-Feb-21 04:05 41.833084 -122.549127 327 5975ft 98kts
18-Feb-21 04:06 41.859290 -122.561722 350 6653ft 97kts
18-Feb-21 04:07 41.888441 -122.566893 352 7297ft 98kts
18-Feb-21 04:08 41.917515 -122.571203 352 7859ft 100kts
18-Feb-21 04:09 41.947742 -122.575615 352 8380ft 102kts
18-Feb-21 04:10 41.978755 -122.580157 352 8495ft 111kts
18-Feb-21 04:11 42.012987 -122.585158 352 8494ft 115kts
18-Feb-21 04:12 42.047778 -122.590246 352 8494ft 117kts
18-Feb-21 04:13 42.082274 -122.595295 352 8494ft 117kts
18-Feb-21 04:14 42.117347 -122.600433 352 8495ft 117kts
18-Feb-21 04:15 42.150164 -122.609548 346 8493ft 117kts
18-Feb-21 04:16 42.182632 -122.620116 345 8491ft 117kts
18-Feb-21 04:17 42.214785 -122.630408 346 8489ft 117kts
18-Feb-21 04:18 42.246730 -122.640185 346 8487ft 117kts
18-Feb-21 04:19 42.279896 -122.650784 345 8487ft 117kts
18-Feb-21 04:20 42.312585 -122.661402 345 8487ft 117kts
18-Feb-21 04:21 42.344053 -122.671672 345 8487ft 117kts
18-Feb-21 04:22 42.376948 -122.682429 345 8487ft 117kts
18-Feb-21 04:23 42.409739 -122.693168 345 8487ft 117kts
18-Feb-21 04:24 42.441789 -122.703675 345 8487ft 117kts
18-Feb-21 04:25 42.473972 -122.714237 345 8487ft 117kts
18-Feb-21 04:26 42.505683 -122.724656 345 8487ft 117kts
18-Feb-21 04:30 42.632151 -122.766315 345 8486ft 117kts
18-Feb-21 04:31 42.663803 -122.776768 345 8486ft 116kts
18-Feb-21 04:32 42.695539 -122.787259 345 8486ft 116kts
18-Feb-21 04:33 42.727492 -122.797834 345 8486ft 116kts
18-Feb-21 04:34 42.759107 -122.808301 345 8473ft 116kts
18-Feb-21 04:35 42.791131 -122.818922 345 8467ft 114kts
18-Feb-21 04:36 42.822452 -122.829320 345 8467ft 113kts
18-Feb-21 04:37 42.853664 -122.839691 345 8467ft 113kts
18-Feb-21 04:38 42.884717 -122.850018 344 8467ft 113kts
18-Feb-21 04:39 42.915792 -122.860337 343 8462ft 113kts
18-Feb-21 04:40 42.947233 -122.870813 343 8457ft 114kts
18-Feb-21 04:41 42.978552 -122.881268 342 8451ft 116kts
18-Feb-21 04:42 43.010206 -122.891852 341 8446ft 117kts
18-Feb-21 04:43 43.043373 -122.902955 340 8441ft 119kts
18-Feb-21 04:44 43.076040 -122.913914 340 8441ft 119kts
18-Feb-21 04:45 43.108842 -122.924914 340 8441ft 120kts
18-Feb-21 04:46 43.141487 -122.935872 340 8441ft 120kts
18-Feb-21 04:47 43.175082 -122.947161 340 8441ft 120kts
18-Feb-21 04:48 43.207867 -122.958190 340 8441ft 120kts
18-Feb-21 04:49 43.241104 -122.969384 340 8441ft 119kts
18-Feb-21 04:50 43.274958 -122.980795 339 8441ft 119kts
18-Feb-21 04:51 43.308212 -122.992019 339 8441ft 119kts
18-Feb-21 04:52 43.340537 -123.002911 339 8521ft 114kts
18-Feb-21 04:53 43.372543 -123.013767 339 8523ft 118kts
18-Feb-21 04:54 43.404647 -123.026899 336 8523ft 118kts
18-Feb-21 04:55 43.437510 -123.039285 338 8523ft 119kts
18-Feb-21 04:56 43.470706 -123.050873 338 8523ft 119kts
18-Feb-21 04:57 43.503948 -123.062250 338 8523ft 119kts
18-Feb-21 04:58 43.538478 -123.074029 338 8522ft 118kts
18-Feb-21 04:59 43.571277 -123.085268 340 8345ft 126kts
18-Feb-21 05:00 43.613433 -123.099652 343 7911ft 156kts
18-Feb-21 05:01 43.657405 -123.115738 337 7616ft 155kts
18-Feb-21 05:02 43.702656 -123.132417 340 7322ft 153kts
18-Feb-21 05:03 43.748100 -123.148094 341 6975ft 157kts
18-Feb-21 05:04 43.791949 -123.163210 342 6501ft 160kts
18-Feb-21 05:05 43.838747 -123.179363 342 6018ft 159kts
18-Feb-21 05:06 43.886295 -123.191662 348 5485ft 163kts
18-Feb-21 05:07 43.934548 -123.201526 348 4921ft 164kts
18-Feb-21 05:08 43.980938 -123.211316 349 4389ft 163kts
18-Feb-21 05:09 44.028094 -123.221507 349 3851ft 161kts
18-Feb-21 05:10 44.071339 -123.231763 346 3261ft 124kts
18-Feb-21 05:11 44.103741 -123.243146 341 2325ft 113kts
18-Feb-21 05:12 44.135170 -123.246155 358 1527ft 110kts
18-Feb-21 05:13 44.154957 -123.232517 80 1112ft 73kts
18-Feb-21 05:14 44.142423 -123.219225 180 567ft 70kts
18-Feb-21 05:15 44.126687 -123.219021 181 360ft 38kts
18-Feb-21 05:16 44.119566 -123.216960 181 364ft 8kts
18-Feb-21 05:17 44.118598 -123.215435 104 366ft 14kts
18-Feb-21 05:18 44.117825 -123.215264 219 366ft 0kts
18-Feb-21 05:19 44.117825 -123.215264 219 366ft 0kts
18-Feb-21 05:20 44.117825 -123.215264 219 366ft 0kts

Navigation Log

Ident Type
Flight plan parsing failed, navigation log unavailable